Time;durP1;ratioP1;P1;durP2;ratioP2;P2;SDS_P1;SDS_P2;PMS_P1;PMS_P2;Temp;Humidity;BMP_temperature;BMP_pressure;BME280_temperature;BME280_humidity;BME280_pressure;Samples;Min_cycle;Max_cycle;Signal;HPM_P1;HPM_P2
2022/01/10 00:02:13;;;;;;;34.90;18.10;;;;;;;-0.29;95.02;101021.47;5033321;28;20053;-71
2022/01/10 00:04:38;;;;;;;32.50;16.70;;;;;;;-0.31;95.00;101028.50;5026442;28;20030;-71
2022/01/10 00:07:04;;;;;;;31.92;17.50;;;;;;;-0.32;95.19;101045.03;5033098;28;20031;-71
2022/01/10 00:09:29;;;;;;;33.30;17.80;;;;;;;-0.35;95.03;101044.28;5022869;28;20471;-71
2022/01/10 00:11:54;;;;;;;35.83;19.20;;;;;;;-0.34;95.21;101053.84;5033356;28;20079;-71
2022/01/10 00:14:19;;;;;;;33.78;18.83;;;;;;;-0.34;95.90;101059.06;5034511;28;20463;-71
2022/01/10 00:16:45;;;;;;;32.92;18.27;;;;;;;-0.36;95.33;101056.47;5026590;28;20029;-71
2022/01/10 00:19:10;;;;;;;37.45;19.60;;;;;;;-0.39;95.35;101060.03;5033105;28;20025;-70
2022/01/10 00:21:35;;;;;;;32.25;18.33;;;;;;;-0.41;95.68;101058.38;5034215;28;20546;-70
2022/01/10 00:24:01;;;;;;;32.50;19.30;;;;;;;-0.41;95.64;101063.59;5035144;28;20041;-70
2022/01/10 00:26:26;;;;;;;38.80;18.73;;;;;;;-0.43;95.93;101061.00;5022825;28;20030;-70
2022/01/10 00:28:51;;;;;;;35.75;19.58;;;;;;;-0.46;95.50;101063.69;5031873;28;20056;-70
2022/01/10 00:31:18;;;;;;;35.42;19.33;;;;;;;-0.45;95.76;101065.44;5033659;28;20242;-71
2022/01/10 00:33:43;;;;;;;28.48;18.42;;;;;;;-0.47;95.74;101061.13;5033506;28;20021;-71
2022/01/10 00:36:09;;;;;;;26.85;18.77;;;;;;;-0.48;95.45;101065.50;5021549;28;20039;-71
2022/01/10 00:38:34;;;;;;;29.33;19.13;;;;;;;-0.48;95.54;101065.50;5048662;28;20486;-71
2022/01/10 00:41:00;;;;;;;27.10;18.38;;;;;;;-0.50;95.32;101066.44;5027555;28;20030;-71
2022/01/10 00:43:35;;;;;;;37.28;19.70;;;;;;;-0.51;95.88;101073.41;5032308;28;20037;-71
2022/01/10 00:46:02;;;;;;;31.63;19.13;;;;;;;-0.52;95.73;101078.66;5032625;28;20116;-71
2022/01/10 00:48:28;;;;;;;36.20;19.02;;;;;;;-0.54;95.85;101072.66;5032951;28;20475;-71
2022/01/10 00:50:53;;;;;;;39.25;20.20;;;;;;;-0.55;96.13;101087.41;5033372;28;20060;-71
2022/01/10 00:53:19;;;;;;;38.70;19.15;;;;;;;-0.57;96.02;101090.09;5032233;28;20126;-71
2022/01/10 00:55:44;;;;;;;36.80;19.00;;;;;;;-0.59;96.05;101091.88;5032209;28;20026;-70
2022/01/10 00:58:10;;;;;;;30.52;18.55;;;;;;;-0.60;95.74;101095.38;5032514;28;20036;-71
2022/01/10 01:00:35;;;;;;;34.20;19.35;;;;;;;-0.61;95.65;101103.25;5026791;28;20061;-70
2022/01/10 01:03:00;;;;;;;31.00;18.23;;;;;;;-0.62;96.04;101106.75;5032593;28;20065;-71
2022/01/10 01:05:27;;;;;;;35.17;19.20;;;;;;;-0.63;96.08;101112.88;5032447;28;20439;-70
2022/01/10 01:07:53;;;;;;;32.95;18.50;;;;;;;-0.66;96.21;101115.56;5022731;28;20100;-71
2022/01/10 01:13:03;;;;;;;32.33;18.48;;;;;;;-0.67;95.91;101129.50;5031960;28;20367;-71
2022/01/10 01:15:34;;;;;;;34.63;19.83;;;;;;;-0.71;95.68;101127.88;5022387;28;20465;-71
2022/01/10 01:24:01;;;;;;;37.03;18.98;;;;;;;-0.72;95.71;101147.84;5027189;28;20050;-71
2022/01/10 01:25:55;;;;;;;36.42;18.88;;;;;;;-0.71;95.61;101146.13;5019006;28;20329;-71
2022/01/10 01:28:21;;;;;;;29.05;18.05;;;;;;;-0.72;95.87;101155.69;5030053;28;20047;-71
2022/01/10 01:30:46;;;;;;;33.67;18.88;;;;;;;-0.72;95.76;101158.28;5028217;28;20036;-71
2022/01/10 01:33:13;;;;;;;37.30;19.55;;;;;;;-0.76;95.86;101165.34;5030692;28;20104;-70
2022/01/10 01:35:39;;;;;;;30.60;18.23;;;;;;;-0.77;95.89;101162.75;5031391;28;20025;-70
2022/01/10 01:38:05;;;;;;;36.28;18.65;;;;;;;-0.80;95.45;101165.44;5019661;28;20626;-71
2022/01/10 01:40:32;;;;;;;35.47;18.67;;;;;;;-0.81;95.72;101171.56;5029038;28;20025;-70
2022/01/10 01:42:58;;;;;;;35.65;19.75;;;;;;;-0.82;95.79;101177.66;5029039;28;20032;-70
2022/01/10 01:45:50;;;;;;;38.03;18.77;;;;;;;-0.83;95.65;101184.66;5031260;28;20037;-71
2022/01/10 01:48:16;;;;;;;33.67;18.55;;;;;;;-0.85;95.49;101193.38;5027997;28;20040;-70
2022/01/10 01:50:41;;;;;;;35.15;18.88;;;;;;;-0.88;95.91;101194.34;5031146;28;20487;-71
2022/01/10 01:53:07;;;;;;;35.50;19.45;;;;;;;-0.87;95.98;101205.59;5022163;28;20071;-70
2022/01/10 01:55:33;;;;;;;37.30;19.17;;;;;;;-0.87;95.94;101203.00;5030827;28;20036;-71
2022/01/10 01:57:59;;;;;;;36.90;21.02;;;;;;;-0.87;96.00;101209.06;5015483;28;20014;-69
2022/01/10 02:00:25;;;;;;;36.53;19.40;;;;;;;-0.88;96.12;101206.50;5030835;28;20463;-71
2022/01/10 02:02:51;;;;;;;41.92;20.42;;;;;;;-0.89;96.34;101210.00;5030613;28;20026;-70
2022/01/10 02:05:16;;;;;;;35.08;19.60;;;;;;;-0.91;96.03;101212.66;5023055;28;20053;-70
2022/01/10 02:07:42;;;;;;;33.05;19.92;;;;;;;-0.92;96.30;101208.31;5029382;28;20057;-71
2022/01/10 02:10:08;;;;;;;35.60;20.30;;;;;;;-0.92;96.35;101216.13;5030595;28;20038;-70
2022/01/10 02:12:33;;;;;;;38.50;20.60;;;;;;;-0.94;96.35;101210.09;5028974;28;20022;-70
2022/01/10 02:14:58;;;;;;;35.33;19.90;;;;;;;-0.94;96.29;101215.31;5029103;28;20045;-70
2022/01/10 02:17:33;;;;;;;38.60;20.27;;;;;;;-0.94;96.50;101212.72;5029481;28;20025;-71
2022/01/10 02:20:00;;;;;;;35.15;20.15;;;;;;;-0.94;96.44;101216.16;5031047;28;20033;-70
2022/01/10 02:22:26;;;;;;;37.38;20.70;;;;;;;-0.93;96.64;101227.47;5020892;28;20446;-71
2022/01/10 02:24:51;;;;;;;39.35;20.98;;;;;;;-0.95;96.50;101224.91;5031009;28;20025;-71
2022/01/10 02:27:16;;;;;;;38.03;19.60;;;;;;;-0.95;96.81;101234.47;5030719;28;20025;-71
2022/01/10 02:29:42;;;;;;;37.70;20.15;;;;;;;-0.96;96.57;101233.59;5026352;28;20110;-70
2022/01/10 02:32:07;;;;;;;44.92;19.60;;;;;;;-0.96;96.71;101233.59;5030608;28;20036;-71
2022/01/10 02:34:32;;;;;;;32.90;19.70;;;;;;;-0.98;96.60;101244.97;5030326;28;20024;-72
2022/01/10 02:37:00;;;;;;;41.05;20.02;;;;;;;-0.97;96.84;101242.31;5030258;28;20041;-73
2022/01/10 02:39:26;;;;;;;42.72;21.00;;;;;;;-0.97;97.43;101247.53;5021406;28;20030;-71
2022/01/10 02:41:51;;;;;;;37.83;21.30;;;;;;;-0.97;97.36;101257.94;5030206;28;20371;-71
2022/01/10 02:44:18;;;;;;;38.67;20.85;;;;;;;-0.95;97.70;101260.53;5025205;28;20036;-71
2022/01/10 02:46:45;;;;;;;38.85;22.00;;;;;;;-0.95;97.51;101274.44;5023748;28;20092;-71
2022/01/10 02:49:12;;;;;;;34.35;19.95;;;;;;;-0.95;97.60;101271.84;5029616;28;20351;-71
2022/01/10 02:51:38;;;;;;;38.55;20.75;;;;;;;-0.93;97.60;101283.09;5021460;28;20033;-71
2022/01/10 02:54:04;;;;;;;39.78;21.33;;;;;;;-0.90;97.45;101287.34;5009845;28;20028;-71
2022/01/10 02:56:29;;;;;;;32.85;20.10;;;;;;;-0.89;97.58;101291.69;5009736;28;20022;-71
2022/01/10 02:58:54;;;;;;;36.50;20.15;;;;;;;-0.88;97.44;101302.97;5016769;28;20017;-71
2022/01/10 03:01:19;;;;;;;36.17;20.45;;;;;;;-0.87;97.26;101305.56;5028942;28;20406;-71
2022/01/10 03:03:45;;;;;;;36.78;21.20;;;;;;;-0.84;97.51;101297.66;5025100;28;20026;-71
2022/01/10 03:06:11;;;;;;;36.58;21.20;;;;;;;-0.83;97.45;101308.97;5027943;28;20033;-71
2022/01/10 03:08:37;;;;;;;41.63;21.10;;;;;;;-0.84;97.38;101317.69;5021184;28;20033;-71
2022/01/10 03:11:02;;;;;;;35.45;21.38;;;;;;;-0.83;97.34;101314.19;5028519;28;20036;-71
2022/01/10 03:13:27;;;;;;;35.30;20.58;;;;;;;-0.82;97.68;101315.88;5028298;28;20025;-71
2022/01/10 03:15:53;;;;;;;36.53;21.08;;;;;;;-0.81;97.65;101321.06;5030155;28;20387;-71
2022/01/10 03:18:18;;;;;;;38.08;21.08;;;;;;;-0.78;97.58;101330.59;5032379;28;20032;-71
2022/01/10 03:20:43;;;;;;;33.97;19.85;;;;;;;-0.79;97.63;101327.09;5032414;28;20030;-71
2022/01/10 03:23:09;;;;;;;36.38;20.65;;;;;;;-0.76;97.36;101329.66;5023945;28;20034;-71
2022/01/10 03:25:34;;;;;;;39.20;20.98;;;;;;;-0.75;97.48;101335.72;5029646;28;20064;-71
2022/01/10 03:28:00;;;;;;;35.45;20.55;;;;;;;-0.75;97.32;101335.72;5032539;28;20037;-71
2022/01/10 03:30:26;;;;;;;38.60;20.35;;;;;;;-0.74;97.47;101340.06;5032221;28;20057;-71
2022/01/10 03:32:52;;;;;;;35.80;20.80;;;;;;;-0.73;97.58;101341.78;5020576;28;20455;-71
2022/01/10 03:35:18;;;;;;;33.08;20.52;;;;;;;-0.73;97.57;101344.41;5032565;28;20226;-71
2022/01/10 03:37:43;;;;;;;33.97;20.10;;;;;;;-0.72;97.46;101351.31;5029184;28;20036;-71
2022/01/10 03:40:09;;;;;;;37.83;21.30;;;;;;;-0.71;97.42;101357.41;5032239;28;20139;-71
2022/01/10 03:42:35;;;;;;;37.05;20.20;;;;;;;-0.73;97.33;101367.00;5031496;28;20033;-71
2022/01/10 03:45:00;;;;;;;32.08;20.80;;;;;;;-0.70;97.48;101373.03;5044981;28;20021;-71
2022/01/10 03:47:26;;;;;;;34.88;19.20;;;;;;;-0.70;97.19;101379.97;5032104;28;20029;-71
2022/01/10 03:49:51;;;;;;;32.10;19.02;;;;;;;-0.71;97.08;101383.50;4985390;28;1015436;-71
2022/01/10 03:52:17;;;;;;;32.95;18.75;;;;;;;-0.70;97.15;101393.00;5033431;28;20621;-71
2022/01/10 03:54:42;;;;;;;33.83;19.25;;;;;;;-0.69;96.96;101392.13;5033480;28;20025;-71
2022/01/10 03:57:08;;;;;;;35.97;20.35;;;;;;;-0.69;97.26;101394.75;5021373;28;20037;-71
2022/01/10 03:59:33;;;;;;;30.95;19.40;;;;;;;-0.71;97.15;101394.78;5033477;28;20434;-71
2022/01/10 04:01:59;;;;;;;29.27;19.50;;;;;;;-0.71;97.22;101393.94;5032998;28;20521;-72
2022/01/10 04:04:24;;;;;;;36.70;19.42;;;;;;;-0.69;96.84;101406.03;5026955;28;20356;-71
2022/01/10 04:06:49;;;;;;;37.92;19.17;;;;;;;-0.69;96.94;101408.63;5026684;28;20029;-71
2022/01/10 04:09:17;;;;;;;43.97;20.42;;;;;;;-0.72;97.24;101403.47;5032645;28;20036;-71
2022/01/10 04:11:42;;;;;;;34.45;19.90;;;;;;;-0.71;97.37;101412.19;5033001;28;20828;-72
2022/01/10 04:14:08;;;;;;;36.35;19.42;;;;;;;-0.72;97.29;101413.91;5016166;28;20049;-71
2022/01/10 04:16:33;;;;;;;35.63;19.45;;;;;;;-0.70;97.30;101416.50;5013211;28;20030;-72
2022/01/10 04:18:58;;;;;;;34.53;20.05;;;;;;;-0.71;97.08;101418.25;5027984;28;20104;-72
2022/01/10 04:21:23;;;;;;;35.15;19.77;;;;;;;-0.67;97.20;101426.88;5012568;28;20060;-71
2022/01/10 04:23:49;;;;;;;35.75;21.05;;;;;;;-0.68;97.58;101428.63;5013087;28;20042;-71
2022/01/10 04:26:15;;;;;;;41.20;20.65;;;;;;;-0.68;97.25;101430.34;5012943;28;20026;-71
2022/01/10 04:28:40;;;;;;;36.47;20.52;;;;;;;-0.66;97.70;101433.81;5012764;28;20045;-72
2022/01/10 04:31:05;;;;;;;41.85;20.15;;;;;;;-0.66;97.73;101433.81;5012899;28;20104;-71
2022/01/10 04:33:31;;;;;;;42.28;22.48;;;;;;;-0.67;97.79;101443.38;5012595;28;20032;-72
2022/01/10 04:35:57;;;;;;;38.55;22.02;;;;;;;-0.65;98.13;101438.13;5012728;28;20109;-71
2022/01/10 04:38:23;;;;;;;35.60;21.20;;;;;;;-0.65;98.00;101446.84;5012675;28;20498;-71
2022/01/10 04:40:49;;;;;;;43.17;23.00;;;;;;;-0.63;98.37;101471.13;5012616;28;20468;-72
2022/01/10 04:43:15;;;;;;;43.10;21.55;;;;;;;-0.62;98.11;101464.16;5012498;28;20030;-71
2022/01/10 04:45:42;;;;;;;49.30;23.02;;;;;;;-0.60;98.39;101465.84;5012489;28;20050;-71
2022/01/10 04:48:07;;;;;;;41.90;22.20;;;;;;;-0.58;98.17;101477.13;5012291;28;20269;-72
2022/01/10 04:53:17;;;;;;;39.55;22.13;;;;;;;-0.54;98.22;101495.31;5012558;28;20041;-71
2022/01/10 04:55:42;;;;;;;40.25;22.30;;;;;;;-0.53;98.29;101494.41;5012211;28;21384;-72
2022/01/10 04:58:07;;;;;;;40.40;23.13;;;;;;;-0.52;98.13;101504.81;5012177;28;20026;-72
2022/01/10 05:00:33;;;;;;;43.05;23.52;;;;;;;-0.50;98.40;101499.56;5012180;28;20034;-72
2022/01/10 05:02:58;;;;;;;43.67;22.77;;;;;;;-0.50;98.21;101518.72;5012307;28;20104;-71
2022/01/10 05:05:23;;;;;;;43.10;21.48;;;;;;;-0.48;97.98;101524.75;5011963;28;20029;-72
2022/01/10 05:07:49;;;;;;;43.97;23.55;;;;;;;-0.45;98.51;101521.22;5024112;28;20075;-72
2022/01/10 05:10:14;;;;;;;39.72;23.05;;;;;;;-0.44;98.14;101522.94;5027134;28;20359;-72
2022/01/10 05:12:39;;;;;;;44.95;23.25;;;;;;;-0.43;98.26;101538.56;5016027;28;20104;-72
2022/01/10 05:15:05;;;;;;;42.00;24.08;;;;;;;-0.39;98.66;101541.97;5024274;28;20029;-72
2022/01/10 05:17:30;;;;;;;40.08;23.27;;;;;;;-0.38;98.57;101548.94;5029223;28;20438;-72
2022/01/10 05:19:56;;;;;;;43.72;23.67;;;;;;;-0.36;98.67;101549.75;5023013;28;20041;-71
2022/01/10 05:22:21;;;;;;;43.78;24.50;;;;;;;-0.37;98.82;101548.03;5029836;28;20033;-71
2022/01/10 05:24:46;;;;;;;43.30;24.38;;;;;;;-0.35;98.43;101542.78;5031482;28;20107;-71
2022/01/10 05:27:12;;;;;;;42.22;24.33;;;;;;;-0.34;98.75;101553.19;5031456;28;20022;-71
2022/01/10 05:29:37;;;;;;;40.53;22.85;;;;;;;-0.29;98.94;101569.63;5024920;28;20487;-71
2022/01/10 05:32:02;;;;;;;41.22;24.35;;;;;;;-0.27;98.52;101573.06;5025645;28;20029;-72
2022/01/10 05:34:30;;;;;;;40.33;24.45;;;;;;;-0.25;98.57;101565.19;5030659;28;20025;-72
2022/01/10 05:36:55;;;;;;;49.92;25.65;;;;;;;-0.24;98.68;101585.19;5025706;28;20033;-69
2022/01/10 05:39:20;;;;;;;41.33;24.02;;;;;;;-0.25;98.66;101576.50;5026004;28;20033;-71
2022/01/10 05:41:45;;;;;;;47.47;25.70;;;;;;;-0.24;98.70;101587.81;5031026;28;20029;-71
2022/01/10 05:44:11;;;;;;;37.00;24.40;;;;;;;-0.21;98.61;101585.16;5031127;28;20114;-71
2022/01/10 05:46:37;;;;;;;40.70;24.55;;;;;;;-0.21;98.47;101586.00;5024281;28;20029;-71
2022/01/10 05:49:04;;;;;;;44.70;25.25;;;;;;;-0.20;98.57;101594.69;5031300;28;20419;-72
2022/01/10 05:51:34;;;;;;;44.15;23.75;;;;;;;-0.20;98.27;101598.16;5030762;28;20141;-72
2022/01/10 05:54:01;;;;;;;41.03;24.42;;;;;;;-0.20;98.36;101599.91;5023874;28;20044;-71
2022/01/10 05:56:26;;;;;;;40.50;24.00;;;;;;;-0.20;98.51;101600.78;5024208;28;20036;-71
2022/01/10 05:58:51;;;;;;;45.05;25.17;;;;;;;-0.18;98.25;101608.59;5030885;28;20100;-71
2022/01/10 06:01:17;;;;;;;39.50;24.92;;;;;;;-0.17;98.51;101619.88;5026418;28;20523;-72
2022/01/10 06:03:42;;;;;;;45.15;24.75;;;;;;;-0.16;98.13;101606.78;5027678;28;20041;-71
2022/01/10 06:06:07;;;;;;;42.90;25.90;;;;;;;-0.13;98.36;101616.31;5025543;28;20036;-71
2022/01/10 06:08:33;;;;;;;38.97;24.58;;;;;;;-0.12;98.54;101615.44;5030115;28;20018;-71
2022/01/10 06:10:58;;;;;;;42.70;23.55;;;;;;;-0.13;98.45;101624.13;5030603;28;20017;-71
2022/01/10 06:13:24;;;;;;;46.22;25.42;;;;;;;-0.13;98.31;101637.19;5021285;28;20083;-70
2022/01/10 06:15:49;;;;;;;44.80;24.67;;;;;;;-0.12;98.41;101636.31;5030603;28;20505;-70
2022/01/10 06:18:14;;;;;;;39.97;24.45;;;;;;;-0.10;98.04;101642.34;5030546;28;20021;-71
2022/01/10 06:20:39;;;;;;;45.42;24.95;;;;;;;-0.10;98.15;101642.34;5030773;28;20387;-71
2022/01/10 06:23:05;;;;;;;42.78;24.58;;;;;;;-0.08;98.30;101643.22;5027958;28;20060;-71
2022/01/10 06:25:30;;;;;;;41.72;24.90;;;;;;;-0.08;98.29;101654.50;5030319;28;20037;-71
2022/01/10 06:27:57;;;;;;;48.22;26.00;;;;;;;-0.08;98.15;101656.28;5030527;28;20029;-71
2022/01/10 06:30:23;;;;;;;42.90;26.40;;;;;;;-0.06;98.08;101663.16;5029496;28;20033;-71
2022/01/10 06:32:48;;;;;;;37.22;24.20;;;;;;;-0.05;98.17;101664.91;5030436;28;20364;-71
2022/01/10 06:35:13;;;;;;;41.55;24.27;;;;;;;-0.04;98.24;101673.59;5030324;28;20095;-70
2022/01/10 06:37:39;;;;;;;43.42;26.02;;;;;;;-0.05;97.97;101675.34;5030279;28;20033;-70
2022/01/10 06:40:05;;;;;;;42.13;25.55;;;;;;;-0.05;97.88;101691.00;5025035;28;20030;-70
2022/01/10 06:42:31;;;;;;;41.97;25.17;;;;;;;-0.03;98.00;101691.84;5030575;28;20029;-70
2022/01/10 06:44:57;;;;;;;43.50;26.17;;;;;;;-0.02;98.51;101688.34;5030112;28;20043;-70
2022/01/10 06:47:22;;;;;;;44.20;26.40;;;;;;;-0.01;97.95;101697.03;5030160;28;20375;-70
2022/01/10 06:49:47;;;;;;;42.05;25.75;;;;;;;-0.02;97.95;101693.56;5018788;28;20057;-71
2022/01/10 06:52:13;;;;;;;43.15;25.63;;;;;;;0.01;98.33;101700.47;5019955;28;20033;-71
2022/01/10 06:54:38;;;;;;;43.90;27.33;;;;;;;-0.01;98.02;101703.09;5026547;28;20036;-71
2022/01/10 06:57:04;;;;;;;43.60;25.73;;;;;;;0.01;98.07;101716.16;5029016;28;20478;-70
2022/01/10 06:59:29;;;;;;;42.88;26.35;;;;;;;0.03;98.37;101710.91;5024121;28;20025;-70
2022/01/10 07:01:56;;;;;;;40.00;25.15;;;;;;;0.04;98.11;101715.25;5030007;28;20028;-73
2022/01/10 07:04:22;;;;;;;46.13;24.23;;;;;;;0.03;98.34;101726.56;5024142;28;20045;-71
2022/01/10 07:06:47;;;;;;;47.38;25.23;;;;;;;0.05;97.92;101741.34;5028332;28;20026;-72
2022/01/10 07:09:12;;;;;;;42.20;25.02;;;;;;;0.06;98.22;101736.97;5028536;28;20044;-70
2022/01/10 07:11:38;;;;;;;41.00;24.98;;;;;;;0.05;98.35;101756.13;5029750;28;20022;-70
2022/01/10 07:14:04;;;;;;;42.13;25.38;;;;;;;0.05;97.89;101748.28;5029865;28;20594;-70
2022/01/10 07:16:29;;;;;;;42.05;25.98;;;;;;;0.04;98.17;101759.66;5022948;28;20510;-70
2022/01/10 07:18:54;;;;;;;38.63;24.70;;;;;;;0.03;97.95;101761.38;5027720;28;20248;-71
2022/01/10 07:21:20;;;;;;;45.38;25.70;;;;;;;0.05;98.18;101759.63;5021960;28;20057;-71
2022/01/10 07:23:45;;;;;;;40.83;25.45;;;;;;;0.06;97.99;101763.94;5029575;28;20113;-70
2022/01/10 07:26:10;;;;;;;45.45;25.77;;;;;;;0.06;98.33;101773.53;5025613;28;20119;-70
2022/01/10 07:28:36;;;;;;;36.22;24.85;;;;;;;0.06;98.14;101783.97;5015305;28;20356;-71
2022/01/10 07:31:01;;;;;;;42.33;24.98;;;;;;;0.06;97.95;101784.81;5018333;28;20045;-70
2022/01/10 07:33:26;;;;;;;43.95;25.10;;;;;;;0.08;98.14;101787.41;5031040;28;20487;-71
2022/01/10 07:35:52;;;;;;;41.33;25.27;;;;;;;0.08;97.66;101797.88;5018692;28;20048;-70
2022/01/10 07:38:17;;;;;;;40.35;25.67;;;;;;;0.06;97.96;101803.09;5013220;28;20083;-71
2022/01/10 07:40:42;;;;;;;34.50;23.05;;;;;;;0.06;97.67;101808.34;5016333;28;20049;-71
2022/01/10 07:43:07;;;;;;;39.15;24.25;;;;;;;0.05;97.83;101804.03;5014028;28;20029;-71
2022/01/10 07:45:33;;;;;;;40.40;24.60;;;;;;;0.06;97.73;101825.78;5012350;28;20040;-71
2022/01/10 07:47:58;;;;;;;39.10;24.38;;;;;;;0.06;97.41;101823.16;5009490;28;20087;-71
2022/01/10 07:50:24;;;;;;;40.92;25.65;;;;;;;0.04;97.49;101824.94;5012718;28;20518;-70
2022/01/10 07:52:49;;;;;;;41.25;24.60;;;;;;;0.02;97.61;101845.84;5021576;28;20014;-71
2022/01/10 07:55:14;;;;;;;38.97;25.00;;;;;;;0.03;97.38;101854.53;5025797;28;20068;-69
2022/01/10 07:57:40;;;;;;;43.33;24.77;;;;;;;0.02;97.11;101853.69;5025624;28;20060;-72
2022/01/10 08:00:06;;;;;;;37.03;24.55;;;;;;;0.02;97.40;101864.13;5020447;28;20046;-71
2022/01/10 08:02:31;;;;;;;38.33;23.45;;;;;;;0.03;96.93;101867.59;5015467;28;20031;-72
2022/01/10 08:04:57;;;;;;;42.63;25.33;;;;;;;0.05;97.58;101871.03;5017059;28;20383;-71
2022/01/10 08:07:22;;;;;;;49.45;26.40;;;;;;;0.03;96.99;101873.69;5014069;28;20030;-72
2022/01/10 08:09:47;;;;;;;39.67;25.25;;;;;;;-0.01;97.13;101885.06;5021615;28;20057;-72
2022/01/10 08:12:13;;;;;;;44.65;26.35;;;;;;;-0.03;97.09;101884.25;5032324;28;20398;-71
2022/01/10 08:14:38;;;;;;;44.22;26.67;;;;;;;-0.06;97.23;101881.69;5019203;28;20211;-71
2022/01/10 08:17:04;;;;;;;48.53;26.20;;;;;;;-0.08;97.50;101886.06;5019180;28;20041;-72
2022/01/10 08:19:31;;;;;;;40.47;25.88;;;;;;;-0.08;97.26;101893.91;5014336;28;20109;-73
2022/01/10 08:21:57;;;;;;;41.53;25.65;;;;;;;-0.09;97.22;101900.84;5022507;28;20041;-71
2022/01/10 08:24:24;;;;;;;43.72;25.90;;;;;;;-0.06;97.53;101910.41;5027442;28;20372;-72
2022/01/10 08:26:50;;;;;;;44.17;25.42;;;;;;;-0.04;97.31;101912.09;5024941;28;20040;-72
2022/01/10 08:29:16;;;;;;;44.13;26.27;;;;;;;-0.04;97.24;101913.84;5039693;28;20462;-71
2022/01/10 08:31:41;;;;;;;41.08;25.13;;;;;;;-0.03;97.29;101919.06;5015601;28;20073;-71
2022/01/10 08:34:07;;;;;;;44.75;27.20;;;;;;;0.00;97.32;101928.59;5014580;28;20061;-71
2022/01/10 08:36:33;;;;;;;41.85;25.88;;;;;;;0.00;97.25;101931.22;5013640;28;20042;-72
2022/01/10 08:38:59;;;;;;;46.58;25.33;;;;;;;0.02;97.35;101937.28;5015063;28;20034;-72
2022/01/10 08:41:25;;;;;;;46.70;26.42;;;;;;;0.03;97.08;101944.19;5024160;28;20037;-71
2022/01/10 08:43:50;;;;;;;46.47;26.63;;;;;;;0.04;97.20;101947.69;5013523;28;20025;-71
2022/01/10 08:46:15;;;;;;;44.33;26.13;;;;;;;0.04;97.09;101959.00;5029588;28;20040;-70
2022/01/10 08:48:41;;;;;;;44.00;26.13;;;;;;;0.05;97.48;101965.97;5030591;28;20025;-70
2022/01/10 08:51:07;;;;;;;40.92;24.08;;;;;;;0.04;97.17;101966.84;5025103;28;20084;-70
2022/01/10 08:53:32;;;;;;;38.90;24.70;;;;;;;0.04;97.11;101974.69;5015863;28;20068;-70
2022/01/10 08:55:58;;;;;;;37.97;24.00;;;;;;;0.04;97.24;101989.50;5019493;28;20086;-69
2022/01/10 08:58:25;;;;;;;41.38;25.08;;;;;;;0.04;97.12;101990.34;5013475;28;20084;-69
2022/01/10 09:00:50;;;;;;;38.83;24.50;;;;;;;0.06;97.00;101985.09;5019620;28;20093;-70
2022/01/10 09:03:16;;;;;;;44.95;25.90;;;;;;;0.07;97.48;101994.69;5022481;28;20167;-69
2022/01/10 09:05:41;;;;;;;40.85;25.75;;;;;;;0.07;97.67;101995.53;5016733;28;20025;-69
2022/01/10 09:08:06;;;;;;;43.70;25.35;;;;;;;0.11;97.64;102005.03;5016636;28;20033;-68
2022/01/10 09:10:32;;;;;;;38.63;24.83;;;;;;;0.15;97.85;102005.84;4994861;28;20037;-69
2022/01/10 09:12:57;;;;;;;42.55;25.25;;;;;;;0.17;97.68;102002.34;5013732;28;20014;-68
2022/01/10 09:15:23;;;;;;;37.70;24.38;;;;;;;0.18;97.32;102017.16;5017983;28;20051;-68
2022/01/10 09:17:49;;;;;;;37.30;25.58;;;;;;;0.20;97.40;102016.25;5023878;28;20053;-68
2022/01/10 09:20:14;;;;;;;37.70;24.38;;;;;;;0.22;97.37;102022.31;5023527;28;20034;-68
2022/01/10 09:22:39;;;;;;;35.92;23.08;;;;;;;0.20;97.08;102017.13;5020582;28;20034;-68
2022/01/10 09:25:05;;;;;;;36.85;23.00;;;;;;;0.20;96.82;102017.13;5037384;28;20037;-68
2022/01/10 09:27:30;;;;;;;39.20;25.35;;;;;;;0.21;97.39;102023.22;5035157;28;20029;-68
2022/01/10 09:29:56;;;;;;;35.80;23.60;;;;;;;0.21;97.38;102028.44;5033748;28;20052;-68
2022/01/10 09:32:21;;;;;;;40.92;25.48;;;;;;;0.19;97.31;102031.06;5035314;28;20026;-68
2022/01/10 09:34:46;;;;;;;36.25;23.52;;;;;;;0.18;96.90;102032.81;5034000;28;20117;-69
2022/01/10 09:37:12;;;;;;;41.92;25.25;;;;;;;0.20;96.94;102037.16;5034903;28;20052;-68
2022/01/10 09:39:37;;;;;;;40.70;24.90;;;;;;;0.21;97.08;102041.50;5034039;28;20518;-68
2022/01/10 09:42:03;;;;;;;38.05;23.40;;;;;;;0.21;97.05;102041.50;5034281;28;20121;-68
2022/01/10 09:44:29;;;;;;;42.72;24.73;;;;;;;0.22;96.80;102040.59;5032698;28;20047;-68
2022/01/10 09:46:54;;;;;;;39.15;23.95;;;;;;;0.25;97.25;102040.56;5033095;28;20055;-69
2022/01/10 09:49:20;;;;;;;39.95;23.67;;;;;;;0.24;96.65;102052.75;5034948;28;20696;-70
2022/01/10 09:51:45;;;;;;;35.25;22.23;;;;;;;0.27;96.87;102049.25;5031870;28;20147;-70
2022/01/10 09:54:11;;;;;;;38.05;23.55;;;;;;;0.30;96.92;102059.63;5022495;28;20041;-68
2022/01/10 09:56:38;;;;;;;37.67;23.17;;;;;;;0.34;96.98;102062.19;5030749;28;20554;-69
2022/01/10 09:59:03;;;;;;;36.13;22.05;;;;;;;0.37;96.98;102056.06;5029607;28;20032;-68
2022/01/10 10:01:30;;;;;;;36.90;22.58;;;;;;;0.42;96.71;102066.44;5031234;28;20025;-68
2022/01/10 10:03:59;;;;;;;36.45;23.25;;;;;;;0.45;96.50;102069.91;5030828;28;20033;-69
2022/01/10 10:06:26;;;;;;;37.57;22.23;;;;;;;0.51;96.79;102082.84;5030996;28;20021;-68
2022/01/10 10:08:52;;;;;;;35.67;21.98;;;;;;;0.58;96.96;102083.63;5026468;28;20284;-68
2022/01/10 10:11:17;;;;;;;37.00;23.27;;;;;;;0.64;96.64;102093.16;5017714;28;20056;-69
2022/01/10 10:13:54;;;;;;;36.97;21.27;;;;;;;0.70;96.43;102103.50;5030434;28;20033;-68
2022/01/10 10:16:21;;;;;;;35.20;21.83;;;;;;;0.79;96.84;102100.75;5027371;28;20029;-69
2022/01/10 10:18:47;;;;;;;38.00;21.67;;;;;;;0.90;97.04;102114.53;5028176;28;20427;-69
2022/01/10 10:21:20;;;;;;;37.10;22.77;;;;;;;1.04;97.12;102122.16;5026248;28;20046;-71
2022/01/10 10:23:48;;;;;;;37.30;22.75;;;;;;;1.15;97.35;102129.84;5026414;28;20075;-70
2022/01/10 10:26:23;;;;;;;34.88;22.35;;;;;;;1.25;97.02;102130.53;5030260;28;20017;-68
2022/01/10 10:28:50;;;;;;;36.60;22.00;;;;;;;1.34;96.57;102140.84;5032944;28;20036;-69
2022/01/10 10:31:31;;;;;;;35.30;22.13;;;;;;;1.40;96.15;102139.88;5021115;28;20065;-69
2022/01/10 10:33:58;;;;;;;33.28;21.33;;;;;;;1.43;95.64;102139.81;5033346;28;20032;-69
2022/01/10 10:36:25;;;;;;;38.58;22.63;;;;;;;1.52;95.68;102144.91;5033581;28;20056;-69
2022/01/10 10:38:52;;;;;;;33.65;20.58;;;;;;;1.60;96.05;102150.88;5031489;28;20395;-69
2022/01/10 10:41:17;;;;;;;32.13;19.88;;;;;;;1.63;94.81;102142.06;5032046;28;20040;-69
2022/01/10 10:43:43;;;;;;;31.13;20.83;;;;;;;1.75;95.51;102148.84;5030254;28;20030;-69
2022/01/10 10:46:13;;;;;;;31.17;19.27;;;;;;;1.84;95.25;102151.28;5029905;28;20475;-70
2022/01/10 10:48:45;;;;;;;31.00;19.25;;;;;;;1.94;95.42;102149.38;5032573;28;20124;-68
2022/01/10 10:51:11;;;;;;;31.80;19.70;;;;;;;2.01;95.04;102154.44;5027497;28;20057;-69
2022/01/10 10:53:37;;;;;;;30.27;18.48;;;;;;;2.08;94.23;102143.84;5012198;28;20030;-70
2022/01/10 10:56:05;;;;;;;30.40;18.92;;;;;;;2.15;94.69;102142.81;5031794;28;20030;-69
2022/01/10 10:58:32;;;;;;;30.88;20.10;;;;;;;2.21;94.13;102147.94;5030502;28;20033;-69
2022/01/10 11:00:59;;;;;;;32.45;18.88;;;;;;;2.28;93.42;102154.81;5030336;28;20349;-69
2022/01/10 11:03:25;;;;;;;32.35;21.05;;;;;;;2.36;93.74;102155.47;5023058;28;20513;-70
2022/01/10 11:05:57;;;;;;;31.77;20.20;;;;;;;2.52;94.12;102155.16;5030274;28;20029;-69
2022/01/10 11:08:25;;;;;;;33.42;21.02;;;;;;;2.66;94.01;102160.94;5030074;28;20334;-71
2022/01/10 11:10:50;;;;;;;32.17;21.38;;;;;;;2.78;94.03;102167.69;5026370;28;20033;-70
2022/01/10 11:13:17;;;;;;;33.20;20.55;;;;;;;2.88;93.85;102174.47;5026080;28;20025;-70
2022/01/10 11:15:43;;;;;;;35.63;20.98;;;;;;;2.95;92.25;102169.94;5030040;28;20036;-70
2022/01/10 11:18:09;;;;;;;37.38;20.80;;;;;;;3.04;92.35;102182.84;5030263;28;20029;-69